sensor_id;sensor_type;location;lat;lon;timestamp;P1;durP1;ratioP1;P2;durP2;ratioP2
17369;SDS011;8802;52.402;4.920;2022-12-29T00:01:38;2.80;;;2.60;;
17369;SDS011;8802;52.402;4.920;2022-12-29T00:04:05;3.10;;;2.78;;
17369;SDS011;8802;52.402;4.920;2022-12-29T00:06:33;2.97;;;2.60;;
17369;SDS011;8802;52.402;4.920;2022-12-29T00:09:00;2.97;;;2.67;;
17369;SDS011;8802;52.402;4.920;2022-12-29T00:11:27;2.70;;;2.50;;
17369;SDS011;8802;52.402;4.920;2022-12-29T00:13:54;2.53;;;2.20;;
17369;SDS011;8802;52.402;4.920;2022-12-29T00:16:40;2.72;;;2.05;;
17369;SDS011;8802;52.402;4.920;2022-12-29T00:19:08;2.58;;;2.35;;
17369;SDS011;8802;52.402;4.920;2022-12-29T00:21:56;4.05;;;2.35;;
17369;SDS011;8802;52.402;4.920;2022-12-29T00:24:41;3.20;;;2.30;;
17369;SDS011;8802;52.402;4.920;2022-12-29T00:27:28;2.42;;;2.08;;
17369;SDS011;8802;52.402;4.920;2022-12-29T00:30:14;2.05;;;1.85;;
17369;SDS011;8802;52.402;4.920;2022-12-29T00:33:00;1.95;;;1.85;;
17369;SDS011;8802;52.402;4.920;2022-12-29T00:35:55;3.10;;;2.20;;
17369;SDS011;8802;52.402;4.920;2022-12-29T00:38:27;2.47;;;2.28;;
17369;SDS011;8802;52.402;4.920;2022-12-29T00:41:12;2.00;;;1.85;;
17369;SDS011;8802;52.402;4.920;2022-12-29T00:43:56;1.52;;;1.42;;
17369;SDS011;8802;52.402;4.920;2022-12-29T00:46:32;2.55;;;1.88;;
17369;SDS011;8802;52.402;4.920;2022-12-29T00:49:00;1.95;;;1.50;;
17369;SDS011;8802;52.402;4.920;2022-12-29T00:51:45;2.05;;;1.58;;
17369;SDS011;8802;52.402;4.920;2022-12-29T00:54:14;2.22;;;1.70;;
17369;SDS011;8802;52.402;4.920;2022-12-29T00:56:42;3.83;;;1.70;;
17369;SDS011;8802;52.402;4.920;2022-12-29T00:59:11;2.33;;;1.55;;
17369;SDS011;8802;52.402;4.920;2022-12-29T01:01:38;3.30;;;1.70;;
17369;SDS011;8802;52.402;4.920;2022-12-29T01:04:05;2.85;;;1.42;;
17369;SDS011;8802;52.402;4.920;2022-12-29T01:06:33;1.92;;;1.30;;
17369;SDS011;8802;52.402;4.920;2022-12-29T01:09:02;3.70;;;1.70;;
17369;SDS011;8802;52.402;4.920;2022-12-29T01:11:47;1.52;;;1.27;;
17369;SDS011;8802;52.402;4.920;2022-12-29T01:14:14;1.98;;;1.38;;
17369;SDS011;8802;52.402;4.920;2022-12-29T01:16:41;4.25;;;1.35;;
17369;SDS011;8802;52.402;4.920;2022-12-29T01:19:08;2.10;;;1.20;;
17369;SDS011;8802;52.402;4.920;2022-12-29T01:21:35;1.80;;;1.15;;
17369;SDS011;8802;52.402;4.920;2022-12-29T01:24:02;2.33;;;1.00;;
17369;SDS011;8802;52.402;4.920;2022-12-29T01:26:29;3.50;;;1.55;;
17369;SDS011;8802;52.402;4.920;2022-12-29T01:28:57;2.95;;;1.30;;
17369;SDS011;8802;52.402;4.920;2022-12-29T01:31:24;2.30;;;1.50;;
17369;SDS011;8802;52.402;4.920;2022-12-29T01:33:51;2.33;;;1.13;;
17369;SDS011;8802;52.402;4.920;2022-12-29T01:36:17;1.92;;;1.13;;
17369;SDS011;8802;52.402;4.920;2022-12-29T01:38:45;2.92;;;1.40;;
17369;SDS011;8802;52.402;4.920;2022-12-29T01:41:13;1.98;;;1.23;;
17369;SDS011;8802;52.402;4.920;2022-12-29T01:43:41;2.58;;;1.23;;
17369;SDS011;8802;52.402;4.920;2022-12-29T01:46:13;2.30;;;1.10;;
17369;SDS011;8802;52.402;4.920;2022-12-29T01:48:46;1.25;;;0.90;;
17369;SDS011;8802;52.402;4.920;2022-12-29T01:51:14;1.90;;;0.80;;
17369;SDS011;8802;52.402;4.920;2022-12-29T01:53:42;1.98;;;1.17;;
17369;SDS011;8802;52.402;4.920;2022-12-29T01:56:11;2.47;;;1.17;;
17369;SDS011;8802;52.402;4.920;2022-12-29T01:58:42;2.00;;;0.90;;
17369;SDS011;8802;52.402;4.920;2022-12-29T02:01:13;2.35;;;1.55;;
17369;SDS011;8802;52.402;4.920;2022-12-29T02:03:41;3.05;;;1.23;;
17369;SDS011;8802;52.402;4.920;2022-12-29T02:06:09;2.22;;;1.10;;
17369;SDS011;8802;52.402;4.920;2022-12-29T02:08:39;2.60;;;1.15;;
17369;SDS011;8802;52.402;4.920;2022-12-29T02:11:07;2.78;;;1.25;;
17369;SDS011;8802;52.402;4.920;2022-12-29T02:13:34;3.65;;;1.25;;
17369;SDS011;8802;52.402;4.920;2022-12-29T02:16:03;3.75;;;1.40;;
17369;SDS011;8802;52.402;4.920;2022-12-29T02:18:43;3.40;;;1.70;;
17369;SDS011;8802;52.402;4.920;2022-12-29T02:27:31;2.05;;;1.13;;
17369;SDS011;8802;52.402;4.920;2022-12-29T02:30:31;3.78;;;1.20;;
17369;SDS011;8802;52.402;4.920;2022-12-29T02:33:07;3.45;;;1.10;;
17369;SDS011;8802;52.402;4.920;2022-12-29T02:35:49;2.88;;;1.13;;
17369;SDS011;8802;52.402;4.920;2022-12-29T02:38:25;5.03;;;1.38;;
17369;SDS011;8802;52.402;4.920;2022-12-29T02:41:02;3.72;;;1.02;;
17369;SDS011;8802;52.402;4.920;2022-12-29T02:43:35;6.28;;;0.90;;
17369;SDS011;8802;52.402;4.920;2022-12-29T02:46:09;6.57;;;1.00;;
17369;SDS011;8802;52.402;4.920;2022-12-29T02:48:41;4.45;;;1.13;;
17369;SDS011;8802;52.402;4.920;2022-12-29T02:51:12;3.67;;;0.98;;
17369;SDS011;8802;52.402;4.920;2022-12-29T02:53:46;3.63;;;0.82;;
17369;SDS011;8802;52.402;4.920;2022-12-29T02:56:26;4.03;;;0.85;;
17369;SDS011;8802;52.402;4.920;2022-12-29T02:58:53;3.50;;;0.90;;
17369;SDS011;8802;52.402;4.920;2022-12-29T03:01:23;3.53;;;1.13;;
17369;SDS011;8802;52.402;4.920;2022-12-29T03:04:07;3.47;;;0.93;;
17369;SDS011;8802;52.402;4.920;2022-12-29T03:06:52;4.95;;;0.90;;
17369;SDS011;8802;52.402;4.920;2022-12-29T03:09:28;5.85;;;1.00;;
17369;SDS011;8802;52.402;4.920;2022-12-29T03:12:03;5.25;;;1.05;;
17369;SDS011;8802;52.402;4.920;2022-12-29T03:14:48;4.60;;;1.10;;
17369;SDS011;8802;52.402;4.920;2022-12-29T03:17:40;2.67;;;0.95;;
17369;SDS011;8802;52.402;4.920;2022-12-29T03:20:14;4.50;;;0.98;;
17369;SDS011;8802;52.402;4.920;2022-12-29T03:22:47;3.08;;;0.75;;
17369;SDS011;8802;52.402;4.920;2022-12-29T03:25:17;3.90;;;0.90;;
17369;SDS011;8802;52.402;4.920;2022-12-29T03:27:49;3.70;;;1.33;;
17369;SDS011;8802;52.402;4.920;2022-12-29T03:30:19;5.75;;;1.65;;
17369;SDS011;8802;52.402;4.920;2022-12-29T03:32:48;4.50;;;1.10;;
17369;SDS011;8802;52.402;4.920;2022-12-29T03:35:19;5.55;;;1.10;;
17369;SDS011;8802;52.402;4.920;2022-12-29T03:37:49;7.65;;;1.95;;
17369;SDS011;8802;52.402;4.920;2022-12-29T03:40:18;5.15;;;1.33;;
17369;SDS011;8802;52.402;4.920;2022-12-29T03:42:48;4.43;;;1.00;;
17369;SDS011;8802;52.402;4.920;2022-12-29T03:45:15;7.13;;;1.45;;
17369;SDS011;8802;52.402;4.920;2022-12-29T03:47:42;6.50;;;1.20;;
17369;SDS011;8802;52.402;4.920;2022-12-29T03:50:12;7.50;;;1.90;;
17369;SDS011;8802;52.402;4.920;2022-12-29T03:52:40;5.97;;;1.42;;
17369;SDS011;8802;52.402;4.920;2022-12-29T03:55:07;6.90;;;1.65;;
17369;SDS011;8802;52.402;4.920;2022-12-29T03:57:34;8.27;;;1.40;;
17369;SDS011;8802;52.402;4.920;2022-12-29T04:00:02;6.03;;;1.58;;
17369;SDS011;8802;52.402;4.920;2022-12-29T04:02:29;6.95;;;1.67;;
17369;SDS011;8802;52.402;4.920;2022-12-29T04:04:56;7.43;;;1.98;;
17369;SDS011;8802;52.402;4.920;2022-12-29T04:07:24;6.20;;;1.80;;
17369;SDS011;8802;52.402;4.920;2022-12-29T04:09:51;6.95;;;2.22;;
17369;SDS011;8802;52.402;4.920;2022-12-29T04:12:18;6.38;;;1.75;;
17369;SDS011;8802;52.402;4.920;2022-12-29T04:14:45;9.35;;;1.60;;
17369;SDS011;8802;52.402;4.920;2022-12-29T04:17:11;7.35;;;1.73;;
17369;SDS011;8802;52.402;4.920;2022-12-29T04:19:38;7.22;;;1.52;;
17369;SDS011;8802;52.402;4.920;2022-12-29T04:22:05;8.50;;;2.15;;
17369;SDS011;8802;52.402;4.920;2022-12-29T04:24:32;6.28;;;1.70;;
17369;SDS011;8802;52.402;4.920;2022-12-29T04:26:59;7.63;;;1.73;;
17369;SDS011;8802;52.402;4.920;2022-12-29T04:29:26;9.18;;;1.88;;
17369;SDS011;8802;52.402;4.920;2022-12-29T04:31:53;6.90;;;1.63;;
17369;SDS011;8802;52.402;4.920;2022-12-29T04:34:20;10.57;;;1.95;;
17369;SDS011;8802;52.402;4.920;2022-12-29T04:36:46;7.22;;;1.52;;
17369;SDS011;8802;52.402;4.920;2022-12-29T04:39:13;7.07;;;1.52;;
17369;SDS011;8802;52.402;4.920;2022-12-29T04:41:41;6.55;;;1.58;;
17369;SDS011;8802;52.402;4.920;2022-12-29T04:44:08;4.55;;;1.52;;
17369;SDS011;8802;52.402;4.920;2022-12-29T04:46:35;10.90;;;2.08;;
17369;SDS011;8802;52.402;4.920;2022-12-29T04:49:02;7.40;;;2.25;;
17369;SDS011;8802;52.402;4.920;2022-12-29T04:51:33;10.38;;;2.42;;
17369;SDS011;8802;52.402;4.920;2022-12-29T04:54:00;8.40;;;2.22;;
17369;SDS011;8802;52.402;4.920;2022-12-29T04:56:27;6.90;;;1.80;;
17369;SDS011;8802;52.402;4.920;2022-12-29T04:58:55;10.43;;;2.00;;
17369;SDS011;8802;52.402;4.920;2022-12-29T05:01:22;13.02;;;2.85;;
17369;SDS011;8802;52.402;4.920;2022-12-29T05:03:49;11.88;;;2.50;;
17369;SDS011;8802;52.402;4.920;2022-12-29T05:06:16;11.13;;;2.45;;
17369;SDS011;8802;52.402;4.920;2022-12-29T05:08:43;17.10;;;2.75;;
17369;SDS011;8802;52.402;4.920;2022-12-29T05:11:10;11.15;;;2.50;;
17369;SDS011;8802;52.402;4.920;2022-12-29T05:13:37;9.50;;;1.80;;
17369;SDS011;8802;52.402;4.920;2022-12-29T05:16:05;12.75;;;2.38;;
17369;SDS011;8802;52.402;4.920;2022-12-29T05:18:32;12.10;;;2.20;;
17369;SDS011;8802;52.402;4.920;2022-12-29T05:20:59;10.75;;;2.47;;
17369;SDS011;8802;52.402;4.920;2022-12-29T05:23:26;9.30;;;2.50;;
17369;SDS011;8802;52.402;4.920;2022-12-29T05:25:53;10.43;;;2.10;;
17369;SDS011;8802;52.402;4.920;2022-12-29T05:28:20;10.38;;;2.30;;
17369;SDS011;8802;52.402;4.920;2022-12-29T05:30:47;11.35;;;2.47;;
17369;SDS011;8802;52.402;4.920;2022-12-29T05:33:16;9.80;;;1.88;;
17369;SDS011;8802;52.402;4.920;2022-12-29T05:35:43;9.32;;;2.00;;
17369;SDS011;8802;52.402;4.920;2022-12-29T05:38:10;9.45;;;1.73;;
17369;SDS011;8802;52.402;4.920;2022-12-29T05:40:37;9.27;;;1.98;;
17369;SDS011;8802;52.402;4.920;2022-12-29T05:43:04;12.23;;;2.38;;
17369;SDS011;8802;52.402;4.920;2022-12-29T05:45:31;9.30;;;2.15;;
17369;SDS011;8802;52.402;4.920;2022-12-29T05:47:58;10.00;;;2.33;;
17369;SDS011;8802;52.402;4.920;2022-12-29T05:50:26;10.02;;;2.40;;
17369;SDS011;8802;52.402;4.920;2022-12-29T05:52:53;8.35;;;1.83;;
17369;SDS011;8802;52.402;4.920;2022-12-29T05:55:20;9.52;;;2.22;;
17369;SDS011;8802;52.402;4.920;2022-12-29T05:57:47;13.65;;;2.38;;
17369;SDS011;8802;52.402;4.920;2022-12-29T06:00:14;8.77;;;1.70;;
17369;SDS011;8802;52.402;4.920;2022-12-29T06:02:41;7.50;;;1.88;;
17369;SDS011;8802;52.402;4.920;2022-12-29T06:05:08;9.32;;;2.05;;
17369;SDS011;8802;52.402;4.920;2022-12-29T06:07:36;8.55;;;2.00;;
17369;SDS011;8802;52.402;4.920;2022-12-29T06:10:04;6.88;;;1.88;;
17369;SDS011;8802;52.402;4.920;2022-12-29T06:12:31;9.48;;;1.95;;
17369;SDS011;8802;52.402;4.920;2022-12-29T06:14:58;11.43;;;1.88;;
17369;SDS011;8802;52.402;4.920;2022-12-29T06:17:25;12.80;;;2.60;;
17369;SDS011;8802;52.402;4.920;2022-12-29T06:19:52;13.15;;;2.92;;
17369;SDS011;8802;52.402;4.920;2022-12-29T06:22:18;11.43;;;2.40;;
17369;SDS011;8802;52.402;4.920;2022-12-29T06:24:46;8.57;;;2.75;;
17369;SDS011;8802;52.402;4.920;2022-12-29T06:27:13;10.82;;;2.30;;
17369;SDS011;8802;52.402;4.920;2022-12-29T06:29:40;7.85;;;1.75;;
17369;SDS011;8802;52.402;4.920;2022-12-29T06:32:07;10.52;;;2.25;;
17369;SDS011;8802;52.402;4.920;2022-12-29T06:34:35;11.35;;;2.45;;
17369;SDS011;8802;52.402;4.920;2022-12-29T06:37:02;13.27;;;2.40;;
17369;SDS011;8802;52.402;4.920;2022-12-29T06:39:29;11.00;;;2.35;;
17369;SDS011;8802;52.402;4.920;2022-12-29T06:41:57;11.30;;;2.85;;
17369;SDS011;8802;52.402;4.920;2022-12-29T06:44:24;10.93;;;2.50;;
17369;SDS011;8802;52.402;4.920;2022-12-29T06:46:50;16.05;;;3.28;;
17369;SDS011;8802;52.402;4.920;2022-12-29T06:49:17;10.18;;;2.33;;
17369;SDS011;8802;52.402;4.920;2022-12-29T06:51:44;17.25;;;2.92;;
17369;SDS011;8802;52.402;4.920;2022-12-29T06:54:11;11.90;;;3.22;;
17369;SDS011;8802;52.402;4.920;2022-12-29T06:56:38;10.57;;;2.40;;
17369;SDS011;8802;52.402;4.920;2022-12-29T06:59:06;11.55;;;3.00;;
17369;SDS011;8802;52.402;4.920;2022-12-29T07:01:33;12.32;;;2.55;;
17369;SDS011;8802;52.402;4.920;2022-12-29T07:04:00;10.43;;;2.20;;
17369;SDS011;8802;52.402;4.920;2022-12-29T07:06:27;12.07;;;2.25;;
17369;SDS011;8802;52.402;4.920;2022-12-29T07:08:54;13.07;;;2.45;;
17369;SDS011;8802;52.402;4.920;2022-12-29T07:11:22;13.43;;;3.33;;
17369;SDS011;8802;52.402;4.920;2022-12-29T07:13:49;15.18;;;3.40;;
17369;SDS011;8802;52.402;4.920;2022-12-29T07:16:18;14.18;;;2.63;;
17369;SDS011;8802;52.402;4.920;2022-12-29T07:18:45;17.15;;;3.00;;
17369;SDS011;8802;52.402;4.920;2022-12-29T07:21:12;13.10;;;2.97;;
17369;SDS011;8802;52.402;4.920;2022-12-29T07:23:38;12.27;;;2.92;;
17369;SDS011;8802;52.402;4.920;2022-12-29T07:26:06;10.45;;;3.42;;
17369;SDS011;8802;52.402;4.920;2022-12-29T07:28:34;16.17;;;3.58;;
17369;SDS011;8802;52.402;4.920;2022-12-29T07:31:03;13.32;;;3.70;;
17369;SDS011;8802;52.402;4.920;2022-12-29T07:33:32;13.70;;;2.97;;
17369;SDS011;8802;52.402;4.920;2022-12-29T07:35:59;14.20;;;3.20;;
17369;SDS011;8802;52.402;4.920;2022-12-29T07:38:26;17.65;;;3.88;;
17369;SDS011;8802;52.402;4.920;2022-12-29T07:40:56;14.68;;;3.28;;
17369;SDS011;8802;52.402;4.920;2022-12-29T07:43:23;18.52;;;3.58;;
17369;SDS011;8802;52.402;4.920;2022-12-29T07:45:50;12.88;;;3.10;;
17369;SDS011;8802;52.402;4.920;2022-12-29T07:48:16;16.83;;;3.45;;
17369;SDS011;8802;52.402;4.920;2022-12-29T07:50:45;18.23;;;3.35;;
17369;SDS011;8802;52.402;4.920;2022-12-29T07:53:11;18.23;;;3.25;;
17369;SDS011;8802;52.402;4.920;2022-12-29T07:55:38;14.38;;;3.03;;
17369;SDS011;8802;52.402;4.920;2022-12-29T07:58:05;10.07;;;2.65;;
17369;SDS011;8802;52.402;4.920;2022-12-29T08:00:32;14.88;;;3.00;;
17369;SDS011;8802;52.402;4.920;2022-12-29T08:02:59;10.48;;;3.00;;
17369;SDS011;8802;52.402;4.920;2022-12-29T08:05:26;15.13;;;2.80;;
17369;SDS011;8802;52.402;4.920;2022-12-29T08:07:54;15.75;;;2.88;;
17369;SDS011;8802;52.402;4.920;2022-12-29T08:10:21;11.85;;;2.47;;
17369;SDS011;8802;52.402;4.920;2022-12-29T08:12:48;13.77;;;2.40;;
17369;SDS011;8802;52.402;4.920;2022-12-29T08:15:15;12.30;;;2.78;;
17369;SDS011;8802;52.402;4.920;2022-12-29T08:17:42;13.45;;;2.50;;
17369;SDS011;8802;52.402;4.920;2022-12-29T08:20:09;10.57;;;2.53;;
17369;SDS011;8802;52.402;4.920;2022-12-29T08:22:36;10.70;;;2.45;;
17369;SDS011;8802;52.402;4.920;2022-12-29T08:25:05;14.98;;;2.97;;
17369;SDS011;8802;52.402;4.920;2022-12-29T08:27:32;12.27;;;2.83;;
17369;SDS011;8802;52.402;4.920;2022-12-29T08:29:59;13.15;;;3.03;;
17369;SDS011;8802;52.402;4.920;2022-12-29T08:32:26;12.75;;;2.55;;
17369;SDS011;8802;52.402;4.920;2022-12-29T08:34:53;12.05;;;2.58;;
17369;SDS011;8802;52.402;4.920;2022-12-29T08:37:20;13.02;;;2.83;;
17369;SDS011;8802;52.402;4.920;2022-12-29T08:39:47;11.27;;;2.85;;
17369;SDS011;8802;52.402;4.920;2022-12-29T08:42:15;12.52;;;3.00;;
17369;SDS011;8802;52.402;4.920;2022-12-29T08:44:42;14.35;;;2.95;;
17369;SDS011;8802;52.402;4.920;2022-12-29T08:47:09;11.23;;;2.42;;
17369;SDS011;8802;52.402;4.920;2022-12-29T08:49:37;14.70;;;2.75;;
17369;SDS011;8802;52.402;4.920;2022-12-29T08:52:04;12.18;;;2.78;;
17369;SDS011;8802;52.402;4.920;2022-12-29T08:54:31;13.55;;;2.83;;
17369;SDS011;8802;52.402;4.920;2022-12-29T08:56:58;12.63;;;2.92;;
17369;SDS011;8802;52.402;4.920;2022-12-29T08:59:26;10.43;;;3.50;;
17369;SDS011;8802;52.402;4.920;2022-12-29T09:01:53;10.70;;;3.03;;
17369;SDS011;8802;52.402;4.920;2022-12-29T09:04:20;11.35;;;2.78;;
17369;SDS011;8802;52.402;4.920;2022-12-29T09:06:48;14.20;;;2.65;;
17369;SDS011;8802;52.402;4.920;2022-12-29T09:09:15;16.27;;;3.28;;
17369;SDS011;8802;52.402;4.920;2022-12-29T09:11:43;11.70;;;2.45;;
17369;SDS011;8802;52.402;4.920;2022-12-29T09:14:10;12.57;;;3.05;;
17369;SDS011;8802;52.402;4.920;2022-12-29T09:16:39;12.23;;;2.45;;
17369;SDS011;8802;52.402;4.920;2022-12-29T09:19:24;10.60;;;2.65;;
17369;SDS011;8802;52.402;4.920;2022-12-29T09:21:50;13.38;;;2.60;;
17369;SDS011;8802;52.402;4.920;2022-12-29T09:24:17;10.40;;;2.75;;
17369;SDS011;8802;52.402;4.920;2022-12-29T09:26:44;12.68;;;2.83;;
17369;SDS011;8802;52.402;4.920;2022-12-29T09:29:11;10.55;;;2.58;;
17369;SDS011;8802;52.402;4.920;2022-12-29T09:31:39;8.68;;;2.63;;
17369;SDS011;8802;52.402;4.920;2022-12-29T09:34:06;14.68;;;2.72;;
17369;SDS011;8802;52.402;4.920;2022-12-29T09:36:33;12.05;;;2.50;;
17369;SDS011;8802;52.402;4.920;2022-12-29T09:38:59;9.68;;;2.75;;
17369;SDS011;8802;52.402;4.920;2022-12-29T09:41:27;10.50;;;2.30;;
17369;SDS011;8802;52.402;4.920;2022-12-29T09:44:00;10.70;;;2.40;;
17369;SDS011;8802;52.402;4.920;2022-12-29T09:46:35;13.80;;;3.10;;
17369;SDS011;8802;52.402;4.920;2022-12-29T09:49:08;9.55;;;3.20;;
17369;SDS011;8802;52.402;4.920;2022-12-29T09:51:43;13.30;;;2.95;;
17369;SDS011;8802;52.402;4.920;2022-12-29T09:54:19;13.68;;;3.03;;
17369;SDS011;8802;52.402;4.920;2022-12-29T09:56:53;11.82;;;2.70;;
17369;SDS011;8802;52.402;4.920;2022-12-29T09:59:20;10.18;;;2.92;;
17369;SDS011;8802;52.402;4.920;2022-12-29T10:01:53;16.33;;;3.63;;
17369;SDS011;8802;52.402;4.920;2022-12-29T10:04:25;21.33;;;3.72;;
17369;SDS011;8802;52.402;4.920;2022-12-29T10:06:54;16.48;;;3.42;;
17369;SDS011;8802;52.402;4.920;2022-12-29T10:09:26;19.08;;;4.00;;
17369;SDS011;8802;52.402;4.920;2022-12-29T10:12:02;14.40;;;3.33;;
17369;SDS011;8802;52.402;4.920;2022-12-29T10:14:44;20.20;;;3.67;;
17369;SDS011;8802;52.402;4.920;2022-12-29T10:17:24;16.48;;;3.47;;
17369;SDS011;8802;52.402;4.920;2022-12-29T10:20:03;16.25;;;3.40;;
17369;SDS011;8802;52.402;4.920;2022-12-29T10:22:45;17.45;;;4.10;;
17369;SDS011;8802;52.402;4.920;2022-12-29T10:25:25;16.55;;;4.10;;
17369;SDS011;8802;52.402;4.920;2022-12-29T10:27:55;18.98;;;4.05;;
17369;SDS011;8802;52.402;4.920;2022-12-29T10:30:25;19.85;;;4.35;;
17369;SDS011;8802;52.402;4.920;2022-12-29T10:32:54;23.83;;;4.70;;
17369;SDS011;8802;52.402;4.920;2022-12-29T10:35:24;28.15;;;5.47;;
17369;SDS011;8802;52.402;4.920;2022-12-29T10:37:57;23.00;;;4.60;;
17369;SDS011;8802;52.402;4.920;2022-12-29T10:40:29;23.30;;;5.20;;
17369;SDS011;8802;52.402;4.920;2022-12-29T10:43:04;28.55;;;6.22;;
17369;SDS011;8802;52.402;4.920;2022-12-29T10:45:42;20.42;;;4.72;;
17369;SDS011;8802;52.402;4.920;2022-12-29T10:48:12;24.33;;;5.30;;
17369;SDS011;8802;52.402;4.920;2022-12-29T10:50:45;19.55;;;4.32;;
17369;SDS011;8802;52.402;4.920;2022-12-29T10:53:15;23.85;;;5.43;;
17369;SDS011;8802;52.402;4.920;2022-12-29T10:55:46;20.95;;;4.50;;
17369;SDS011;8802;52.402;4.920;2022-12-29T10:58:14;22.85;;;5.10;;
17369;SDS011;8802;52.402;4.920;2022-12-29T11:00:42;16.33;;;3.97;;
17369;SDS011;8802;52.402;4.920;2022-12-29T11:06:17;18.52;;;4.03;;
17369;SDS011;8802;52.402;4.920;2022-12-29T11:08:52;15.35;;;4.30;;
17369;SDS011;8802;52.402;4.920;2022-12-29T11:11:22;21.55;;;4.47;;
17369;SDS011;8802;52.402;4.920;2022-12-29T11:13:55;15.25;;;4.20;;
17369;SDS011;8802;52.402;4.920;2022-12-29T11:16:27;19.65;;;3.88;;
17369;SDS011;8802;52.402;4.920;2022-12-29T11:18:56;14.50;;;3.38;;
17369;SDS011;8802;52.402;4.920;2022-12-29T11:21:26;14.18;;;2.95;;
17369;SDS011;8802;52.402;4.920;2022-12-29T11:23:59;13.88;;;3.83;;
17369;SDS011;8802;52.402;4.920;2022-12-29T11:26:28;12.05;;;2.70;;
17369;SDS011;8802;52.402;4.920;2022-12-29T11:29:16;10.35;;;3.45;;
17369;SDS011;8802;52.402;4.920;2022-12-29T11:31:48;14.32;;;3.10;;
17369;SDS011;8802;52.402;4.920;2022-12-29T11:34:16;12.77;;;3.83;;
17369;SDS011;8802;52.402;4.920;2022-12-29T11:36:46;18.08;;;3.63;;
17369;SDS011;8802;52.402;4.920;2022-12-29T11:39:26;16.40;;;3.40;;
17369;SDS011;8802;52.402;4.920;2022-12-29T11:41:56;17.63;;;3.35;;
17369;SDS011;8802;52.402;4.920;2022-12-29T11:44:23;16.25;;;3.45;;
17369;SDS011;8802;52.402;4.920;2022-12-29T11:46:52;16.58;;;3.35;;
17369;SDS011;8802;52.402;4.920;2022-12-29T11:49:20;17.23;;;3.17;;
17369;SDS011;8802;52.402;4.920;2022-12-29T11:51:51;14.80;;;3.10;;
17369;SDS011;8802;52.402;4.920;2022-12-29T11:54:22;13.98;;;3.38;;
17369;SDS011;8802;52.402;4.920;2022-12-29T11:56:51;17.50;;;3.40;;
17369;SDS011;8802;52.402;4.920;2022-12-29T12:02:22;10.88;;;2.92;;
17369;SDS011;8802;52.402;4.920;2022-12-29T12:05:00;15.55;;;2.70;;
17369;SDS011;8802;52.402;4.920;2022-12-29T12:07:36;12.25;;;2.60;;
17369;SDS011;8802;52.402;4.920;2022-12-29T12:10:08;10.77;;;2.22;;
17369;SDS011;8802;52.402;4.920;2022-12-29T12:12:43;12.60;;;2.30;;
17369;SDS011;8802;52.402;4.920;2022-12-29T12:15:15;19.00;;;6.00;;
17369;SDS011;8802;52.402;4.920;2022-12-29T12:17:47;12.75;;;2.83;;
17369;SDS011;8802;52.402;4.920;2022-12-29T12:20:19;10.38;;;2.55;;
17369;SDS011;8802;52.402;4.920;2022-12-29T12:22:53;13.32;;;3.17;;
17369;SDS011;8802;52.402;4.920;2022-12-29T12:25:29;9.27;;;1.85;;
17369;SDS011;8802;52.402;4.920;2022-12-29T12:28:04;12.15;;;2.70;;
17369;SDS011;8802;52.402;4.920;2022-12-29T12:30:38;10.15;;;2.30;;
17369;SDS011;8802;52.402;4.920;2022-12-29T12:33:12;8.43;;;1.90;;
17369;SDS011;8802;52.402;4.920;2022-12-29T12:35:50;6.90;;;1.58;;
17369;SDS011;8802;52.402;4.920;2022-12-29T12:38:28;11.23;;;1.98;;
17369;SDS011;8802;52.402;4.920;2022-12-29T12:41:06;6.68;;;1.73;;
17369;SDS011;8802;52.402;4.920;2022-12-29T12:43:39;8.32;;;1.90;;
17369;SDS011;8802;52.402;4.920;2022-12-29T12:46:17;10.30;;;2.17;;
17369;SDS011;8802;52.402;4.920;2022-12-29T12:49:15;9.88;;;1.80;;
17369;SDS011;8802;52.402;4.920;2022-12-29T12:52:01;7.07;;;1.63;;
17369;SDS011;8802;52.402;4.920;2022-12-29T12:54:40;13.00;;;2.28;;
17369;SDS011;8802;52.402;4.920;2022-12-29T12:57:22;10.77;;;1.90;;
17369;SDS011;8802;52.402;4.920;2022-12-29T13:00:03;8.68;;;2.00;;
17369;SDS011;8802;52.402;4.920;2022-12-29T13:02:37;10.10;;;1.88;;
17369;SDS011;8802;52.402;4.920;2022-12-29T13:05:20;9.18;;;2.20;;
17369;SDS011;8802;52.402;4.920;2022-12-29T13:08:13;11.85;;;1.70;;
17369;SDS011;8802;52.402;4.920;2022-12-29T13:11:01;10.35;;;1.75;;
17369;SDS011;8802;52.402;4.920;2022-12-29T13:13:42;9.15;;;2.08;;
17369;SDS011;8802;52.402;4.920;2022-12-29T13:16:21;5.20;;;1.60;;
17369;SDS011;8802;52.402;4.920;2022-12-29T13:18:56;10.60;;;2.80;;
17369;SDS011;8802;52.402;4.920;2022-12-29T13:21:31;7.43;;;2.67;;
17369;SDS011;8802;52.402;4.920;2022-12-29T13:24:10;9.25;;;2.65;;
17369;SDS011;8802;52.402;4.920;2022-12-29T13:26:44;9.65;;;2.10;;
17369;SDS011;8802;52.402;4.920;2022-12-29T13:29:15;8.40;;;1.73;;
17369;SDS011;8802;52.402;4.920;2022-12-29T13:31:48;8.73;;;1.67;;
17369;SDS011;8802;52.402;4.920;2022-12-29T13:34:24;7.07;;;1.58;;
17369;SDS011;8802;52.402;4.920;2022-12-29T13:36:58;9.65;;;2.88;;
17369;SDS011;8802;52.402;4.920;2022-12-29T13:39:28;8.10;;;1.88;;
17369;SDS011;8802;52.402;4.920;2022-12-29T13:42:01;6.95;;;2.20;;
17369;SDS011;8802;52.402;4.920;2022-12-29T13:44:30;9.63;;;2.20;;
17369;SDS011;8802;52.402;4.920;2022-12-29T13:47:01;9.93;;;1.90;;
17369;SDS011;8802;52.402;4.920;2022-12-29T13:49:41;9.02;;;2.38;;
17369;SDS011;8802;52.402;4.920;2022-12-29T13:52:09;7.68;;;2.25;;
17369;SDS011;8802;52.402;4.920;2022-12-29T13:54:40;10.07;;;2.70;;
17369;SDS011;8802;52.402;4.920;2022-12-29T13:57:22;11.13;;;1.95;;
17369;SDS011;8802;52.402;4.920;2022-12-29T13:59:59;11.50;;;2.40;;
17369;SDS011;8802;52.402;4.920;2022-12-29T14:02:31;6.60;;;1.70;;
17369;SDS011;8802;52.402;4.920;2022-12-29T14:07:56;8.40;;;2.05;;
17369;SDS011;8802;52.402;4.920;2022-12-29T14:10:26;10.63;;;4.35;;
17369;SDS011;8802;52.402;4.920;2022-12-29T14:13:00;13.35;;;3.88;;
17369;SDS011;8802;52.402;4.920;2022-12-29T14:15:30;9.00;;;2.60;;
17369;SDS011;8802;52.402;4.920;2022-12-29T14:18:09;11.52;;;2.33;;
17369;SDS011;8802;52.402;4.920;2022-12-29T14:20:46;11.52;;;2.90;;
17369;SDS011;8802;52.402;4.920;2022-12-29T14:23:25;10.35;;;1.88;;
17369;SDS011;8802;52.402;4.920;2022-12-29T14:25:55;11.70;;;2.30;;
17369;SDS011;8802;52.402;4.920;2022-12-29T14:28:26;13.00;;;2.60;;
17369;SDS011;8802;52.402;4.920;2022-12-29T14:30:54;14.75;;;2.42;;
17369;SDS011;8802;52.402;4.920;2022-12-29T14:33:22;11.68;;;2.88;;
17369;SDS011;8802;52.402;4.920;2022-12-29T14:35:52;8.90;;;2.30;;
17369;SDS011;8802;52.402;4.920;2022-12-29T14:38:23;11.60;;;2.50;;
17369;SDS011;8802;52.402;4.920;2022-12-29T14:44:09;10.90;;;2.50;;
17369;SDS011;8802;52.402;4.920;2022-12-29T14:46:43;7.32;;;2.03;;
17369;SDS011;8802;52.402;4.920;2022-12-29T14:49:14;8.93;;;2.35;;
17369;SDS011;8802;52.402;4.920;2022-12-29T14:51:45;11.10;;;2.40;;
17369;SDS011;8802;52.402;4.920;2022-12-29T14:54:34;12.20;;;2.80;;
17369;SDS011;8802;52.402;4.920;2022-12-29T14:57:13;7.75;;;1.92;;
17369;SDS011;8802;52.402;4.920;2022-12-29T14:59:47;9.48;;;2.30;;
17369;SDS011;8802;52.402;4.920;2022-12-29T15:02:19;10.32;;;1.98;;
17369;SDS011;8802;52.402;4.920;2022-12-29T15:04:49;8.35;;;2.03;;
17369;SDS011;8802;52.402;4.920;2022-12-29T15:07:17;8.85;;;1.92;;
17369;SDS011;8802;52.402;4.920;2022-12-29T15:09:46;11.63;;;2.40;;
17369;SDS011;8802;52.402;4.920;2022-12-29T15:12:19;10.35;;;1.80;;
17369;SDS011;8802;52.402;4.920;2022-12-29T15:14:51;11.45;;;2.40;;
17369;SDS011;8802;52.402;4.920;2022-12-29T15:17:24;10.80;;;2.63;;
17369;SDS011;8802;52.402;4.920;2022-12-29T15:19:53;9.98;;;2.17;;
17369;SDS011;8802;52.402;4.920;2022-12-29T15:22:21;10.52;;;2.53;;
17369;SDS011;8802;52.402;4.920;2022-12-29T15:24:49;9.65;;;2.50;;
17369;SDS011;8802;52.402;4.920;2022-12-29T15:27:19;13.32;;;2.70;;
17369;SDS011;8802;52.402;4.920;2022-12-29T15:29:47;12.95;;;2.35;;
17369;SDS011;8802;52.402;4.920;2022-12-29T15:32:23;15.90;;;2.85;;
17369;SDS011;8802;52.402;4.920;2022-12-29T15:34:52;10.27;;;2.20;;